Fugaku Maru — JH3428 — position and weather

sailwx.info

Track history (hours):
 
Tides and Currents Weather Stations Pressure Air Temp Water Temp Dewpoint Dewpoint Depression Visibility Wind Speed Wind Dir Waves Ship Positions

Fugaku Maru

Last reported at 2018-Apr-22 21:19 UTC. Time now 2018-Apr-23 21:18 UTC.
Position N 35°10' E 140°33'.

Length 165 m; draft 7.2 m.

Type: Cargo ship. MMSI: 431200176.

Date/timePositionNaut miles runAvg speedWind from/ knotsBaromVisibWave heightAir tempDewpointWater temp
2018-Apr-22 21:19N 35°10' E 140°33'921.4
2018-Apr-22 20:53N 35°05' E 140°24'821.2
2018-Apr-22 20:30N 34°59' E 140°16'1120.6
2018-Apr-22 19:58N 34°53' E 140°06'1221.4
2018-Apr-22 19:26N 34°47' E 139°53'1020.7
2018-Apr-22 18:58N 34°43' E 139°42'1019.6
2018-Apr-22 18:28N 34°39' E 139°32'1021.5
2018-Apr-22 18:00N 34°36' E 139°20'1122.1
2018-Apr-22 17:29N 34°32' E 139°07'1122.0
2018-Apr-22 17:00N 34°30' E 138°55'1321.1
2018-Apr-22 16:22N 34°28' E 138°38'820.6
2018-Apr-22 16:00N 34°28' E 138°29'1020.6
2018-Apr-22 15:30N 34°29' E 138°17'1020.8
2018-Apr-22 15:00N 34°29' E 138°04'1120.8
2018-Apr-22 14:30N 34°30' E 137°51'1020.8
2018-Apr-22 13:59N 34°30' E 137°39'1120.0
2018-Apr-22 13:27N 34°30' E 137°26'921.1
2018-Apr-22 13:00N 34°31' E 137°14'918.6
2018-Apr-22 12:30N 34°32' E 137°03'713.8
2018-Apr-22 12:00N 34°36' E 136°56'1019.2
2018-Apr-22 11:30N 34°43' E 136°49'1019.4
2018-Apr-22 11:00N 34°52' E 136°46'917.5
2018-Apr-22 10:31N 35°00' E 136°50'4 7.2
2018-Apr-22 10:00N 35°03' E 136°53'0 0.0
2018-Apr-22 09:29N 35°03' E 136°53'0 0.0
2018-Apr-22 08:59N 35°03' E 136°53'0 0.0
2018-Apr-22 08:29N 35°03' E 136°53'0 0.0
2018-Apr-22 07:59N 35°03' E 136°53'0 0.0
2018-Apr-22 07:29N 35°03' E 136°53'0 0.0
2018-Apr-22 06:53N 35°03' E 136°53'0 0.0
2018-Apr-22 06:29N 35°03' E 136°53'0 0.0
2018-Apr-22 05:59N 35°03' E 136°53'1 1.3
2018-Apr-22 05:30N 35°03' E 136°52'816.4
2018-Apr-22 05:00N 34°56' E 136°47'1020.2
2018-Apr-22 04:30N 34°46' E 136°48'1020.0
2018-Apr-22 04:00N 34°38' E 136°54'815.2
2018-Apr-22 03:30N 34°33' E 137°02'917.8
2018-Apr-22 03:00N 34°33' E 137°12'1020.2
2018-Apr-22 02:30N 34°32' E 137°25'1120.3
2018-Apr-22 01:58N 34°32' E 137°38'920.3
2018-Apr-22 01:30N 34°31' E 137°49'1020.2
2018-Apr-22 01:00N 34°31' E 138°02'1120.7
2018-Apr-22 00:28N 34°31' E 138°15'1020.2
2018-Apr-21 23:59N 34°31' E 138°27'1120.0
2018-Apr-21 23:27N 34°32' E 138°40'920.0
2018-Apr-21 23:00N 34°32' E 138°51'1019.2
2018-Apr-21 22:30N 34°34' E 139°02'919.3
2018-Apr-21 22:01N 34°36' E 139°14'1019.5
2018-Apr-21 21:30N 34°38' E 139°25'1018.7
2018-Apr-21 21:00N 34°41' E 139°36'1019.9
2018-Apr-21 20:30N 34°45' E 139°47'1019.7
2018-Apr-21 19:59N 34°49' E 139°58'919.7
2018-Apr-21 19:30N 34°54' E 140°08'1019.3
2018-Apr-21 19:01N 34°59' E 140°18'1019.4
2018-Apr-21 18:30N 35°05' E 140°28'1118.8
2018-Apr-21 17:54N 35°14' E 140°37'718.8
2018-Apr-21 17:30N 35°20' E 140°42'1019.3
2018-Apr-21 16:58N 35°28' E 140°50'31315.4
2018-Apr-20 20:40N 40°40' E 141°32'319.4
2018-Apr-20 20:30N 40°43' E 141°33'1019.5
2018-Apr-20 20:00N 40°53' E 141°33'1019.1
2018-Apr-20 19:28N 41°03' E 141°35'918.5
2018-Apr-20 19:00N 41°12' E 141°36'1218.8
2018-Apr-20 18:23N 41°23' E 141°38'32 1.8
2018-Apr-20 00:38N 41°54' E 141°37'318.7
2018-Apr-20 00:29N 41°52' E 141°37'1019.2
2018-Apr-19 23:57N 41°41' E 141°37'817.8
2018-Apr-19 23:30N 41°33' E 141°37'917.8
2018-Apr-19 23:00N 41°25' E 141°37'917.4
2018-Apr-19 22:29N 41°16' E 141°40'917.9
2018-Apr-19 22:00N 41°07' E 141°42'918.1
2018-Apr-19 21:30N 40°58' E 141°44'1918.2
2018-Apr-19 20:26N 40°40' E 141°51'34514.8
2018-Apr-18 21:11N 35°02' E 140°23'620.1
2018-Apr-18 20:53N 34°58' E 140°18'820.2
2018-Apr-18 20:30N 34°54' E 140°10'1020.0
2018-Apr-18 19:59N 34°48' E 139°59'1020.0
2018-Apr-18 19:30N 34°45' E 139°48'1019.3
2018-Apr-18 18:59N 34°41' E 139°37'1019.4
2018-Apr-18 18:30N 34°37' E 139°26'1020.1
2018-Apr-18 18:00N 34°35' E 139°15'1120.9
2018-Apr-18 17:29N 34°32' E 139°02'1420.7
2018-Apr-18 16:49N 34°29' E 138°46'720.2
2018-Apr-18 16:30N 34°29' E 138°38'1320.3
2018-Apr-18 15:50N 34°29' E 138°21'719.7
2018-Apr-18 15:30N 34°29' E 138°13'1020.2
2018-Apr-18 15:00N 34°29' E 138°01'1520.9
2018-Apr-18 14:18N 34°30' E 137°44'1020.9
2018-Apr-18 13:50N 34°31' E 137°31'721.0
2018-Apr-18 13:30N 34°31' E 137°23'1419.7
2018-Apr-18 12:46N 34°32' E 137°06'514.7
2018-Apr-18 12:27N 34°33' E 137°00'816.8
2018-Apr-18 12:00N 34°38' E 136°53'1020.4
2018-Apr-18 11:30N 34°46' E 136°46'1020.2
2018-Apr-18 11:00N 34°56' E 136°46'816.0
2018-Apr-18 10:31N 35°03' E 136°52'1 1.6
2018-Apr-18 10:00N 35°03' E 136°53'0 0.0
2018-Apr-18 09:26N 35°03' E 136°53'0 0.0
2018-Apr-18 08:56N 35°03' E 136°53'0 0.0
2018-Apr-18 08:26N 35°03' E 136°53'0 0.0
2018-Apr-18 07:56N 35°03' E 136°53'0 0.0
2018-Apr-18 07:26N 35°03' E 136°53'0 0.0
2018-Apr-18 06:56N 35°03' E 136°53'0 0.0
2018-Apr-18 06:26N 35°03' E 136°53'0 0.0
2018-Apr-18 06:01N 35°03' E 136°53'3 6.4
2018-Apr-18 05:31N 35°01' E 136°50'611.9
2018-Apr-18 05:00N 34°55' E 136°47'815.6
2018-Apr-18 04:30N 34°48' E 136°46'917.9
2018-Apr-18 04:00N 34°40' E 136°53'816.0
2018-Apr-18 03:30N 34°35' E 136°59'915.3
2018-Apr-18 02:57N 34°32' E 137°09'1020.2
2018-Apr-18 02:27N 34°33' E 137°21'1620.2
2018-Apr-18 01:40N 34°33' E 137°41'320.2
2018-Apr-18 01:29N 34°32' E 137°45'1020.2
2018-Apr-18 01:00N 34°32' E 137°57'1020.2
2018-Apr-18 00:28N 34°31' E 138°10'1020.4
2018-Apr-17 23:59N 34°31' E 138°22'1120.2
2018-Apr-17 23:26N 34°31' E 138°36'920.9
2018-Apr-17 22:59N 34°31' E 138°47'1021.4
2018-Apr-17 22:31N 34°33' E 138°59'1120.9
2018-Apr-17 22:00N 34°35' E 139°12'1020.5
2018-Apr-17 21:30N 34°38' E 139°24'1020.9
2018-Apr-17 21:00N 34°41' E 139°35'1020.5
2018-Apr-17 20:30N 34°46' E 139°47'1119.9
2018-Apr-17 19:57N 34°50' E 139°59'920.2
2018-Apr-17 19:30N 34°55' E 140°09'1019.8
2018-Apr-17 18:59N 35°00' E 140°19'34615.4
2018-Apr-16 20:31N 40°41' E 141°32'118.6
2018-Apr-16 20:27N 40°43' E 141°32'818.8
2018-Apr-16 20:00N 40°51' E 141°32'918.8
2018-Apr-16 19:30N 41°00' E 141°34'53 2.8
2018-Apr-16 00:32N 41°53' E 141°36'318.5
2018-Apr-16 00:22N 41°50' E 141°37'1118.4
2018-Apr-15 23:48N 41°39' E 141°36'617.3
2018-Apr-15 23:26N 41°33' E 141°37'816.6
2018-Apr-15 22:58N 41°25' E 141°37'38614.9
2018-Apr-14 21:06N 35°03' E 140°25'322.5
2018-Apr-14 20:59N 35°02' E 140°22'1122.0
2018-Apr-14 20:30N 34°56' E 140°11'1122.4
2018-Apr-14 20:00N 34°50' E 139°60'1221.1
2018-Apr-14 19:27N 34°45' E 139°47'1020.8
2018-Apr-14 18:57N 34°41' E 139°35'920.6
2018-Apr-14 18:30N 34°38' E 139°25'1020.3
2018-Apr-14 18:00N 34°34' E 139°13'1120.9
2018-Apr-14 17:30N 34°30' E 139°02'1520.5
2018-Apr-14 16:48N 34°28' E 138°44'720.7
2018-Apr-14 16:26N 34°28' E 138°35'1120.4
2018-Apr-14 15:53N 34°29' E 138°22'920.3
2018-Apr-14 15:28N 34°29' E 138°11'920.5
2018-Apr-14 15:01N 34°29' E 137°60'2920.5
2018-Apr-14 13:36N 34°31' E 137°25'220.8
2018-Apr-14 13:29N 34°31' E 137°22'1619.5
2018-Apr-14 12:40N 34°32' E 137°03'513.9
2018-Apr-14 12:19N 34°35' E 136°58'618.9
2018-Apr-14 12:00N 34°39' E 136°52'1019.6
2018-Apr-14 11:31N 34°47' E 136°46'1019.5
2018-Apr-14 11:01N 34°56' E 136°46'815.9
2018-Apr-14 10:30N 35°03' E 136°52'0 0.9
2018-Apr-14 10:00N 35°03' E 136°53'0 0.0
2018-Apr-14 09:30N 35°03' E 136°53'0 0.0
2018-Apr-14 09:01N 35°03' E 136°53'0 0.0
2018-Apr-14 08:30N 35°03' E 136°53'0 0.0
2018-Apr-14 08:00N 35°03' E 136°53'0 0.0
2018-Apr-14 07:30N 35°03' E 136°53'0 0.0
2018-Apr-14 07:00N 35°03' E 136°53'0 0.0
2018-Apr-14 06:30N 35°03' E 136°53'0 0.0
2018-Apr-14 06:00N 35°03' E 136°53'0 0.2
2018-Apr-14 05:30N 35°03' E 136°53'510.3
2018-Apr-14 05:00N 34°59' E 136°49'714.7
2018-Apr-14 04:30N 34°52' E 136°46'815.1
2018-Apr-14 04:00N 34°44' E 136°48'917.2
2018-Apr-14 03:30N 34°38' E 136°55'914.1
2018-Apr-14 02:54N 34°32' E 137°03'717.4
2018-Apr-14 02:28N 34°32' E 137°12'2320.5
2018-Apr-14 01:21N 34°31' E 137°39'920.2
2018-Apr-14 00:55N 34°31' E 137°50'820.3
2018-Apr-14 00:30N 34°31' E 138°00'1120.3
2018-Apr-13 23:56N 34°30' E 138°14'920.7
2018-Apr-13 23:30N 34°31' E 138°26'1020.6
2018-Apr-13 23:00N 34°31' E 138°38'1020.0
2018-Apr-13 22:28N 34°32' E 138°51'919.6
2018-Apr-13 22:00N 34°33' E 139°02'1019.5
2018-Apr-13 21:30N 34°35' E 139°13'1019.8
2018-Apr-13 21:00N 34°37' E 139°25'1019.4
2018-Apr-13 20:30N 34°41' E 139°36'1120.1
2018-Apr-13 19:59N 34°46' E 139°47'1119.5
2018-Apr-13 19:25N 34°51' E 139°59'818.4
2018-Apr-13 19:00N 34°54' E 140°08'1018.9
2018-Apr-13 18:28N 34°59' E 140°19'  
Track history (hours):
 
Tides and Currents Weather Stations Pressure Air Temp Water Temp Dewpoint Dewpoint Depression Visibility Wind Speed Wind Dir Waves Ship Positions

Fugaku Maru

Last reported at 2018-Apr-22 21:19 UTC. Time now 2018-Apr-23 21:18 UTC.
Position N 35°10' E 140°33'.

Length 165 m; draft 7.2 m.

Type: Cargo ship. MMSI: 431200176.

Date/timePositionNaut miles runAvg speedWind from/ knotsBaromVisibWave heightAir tempDewpointWater temp
2018-Apr-22 21:19N 35°10' E 140°33'921.4
2018-Apr-22 20:53N 35°05' E 140°24'821.2
2018-Apr-22 20:30N 34°59' E 140°16'1120.6
2018-Apr-22 19:58N 34°53' E 140°06'1221.4
2018-Apr-22 19:26N 34°47' E 139°53'1020.7
2018-Apr-22 18:58N 34°43' E 139°42'1019.6
2018-Apr-22 18:28N 34°39' E 139°32'1021.5
2018-Apr-22 18:00N 34°36' E 139°20'1122.1
2018-Apr-22 17:29N 34°32' E 139°07'1122.0
2018-Apr-22 17:00N 34°30' E 138°55'1321.1
2018-Apr-22 16:22N 34°28' E 138°38'820.6
2018-Apr-22 16:00N 34°28' E 138°29'1020.6
2018-Apr-22 15:30N 34°29' E 138°17'1020.8
2018-Apr-22 15:00N 34°29' E 138°04'1120.8
2018-Apr-22 14:30N 34°30' E 137°51'1020.8
2018-Apr-22 13:59N 34°30' E 137°39'1120.0
2018-Apr-22 13:27N 34°30' E 137°26'921.1
2018-Apr-22 13:00N 34°31' E 137°14'918.6
2018-Apr-22 12:30N 34°32' E 137°03'713.8
2018-Apr-22 12:00N 34°36' E 136°56'1019.2
2018-Apr-22 11:30N 34°43' E 136°49'1019.4
2018-Apr-22 11:00N 34°52' E 136°46'917.5
2018-Apr-22 10:31N 35°00' E 136°50'4 7.2
2018-Apr-22 10:00N 35°03' E 136°53'0 0.0
2018-Apr-22 09:29N 35°03' E 136°53'0 0.0
2018-Apr-22 08:59N 35°03' E 136°53'0 0.0
2018-Apr-22 08:29N 35°03' E 136°53'0 0.0
2018-Apr-22 07:59N 35°03' E 136°53'0 0.0
2018-Apr-22 07:29N 35°03' E 136°53'0 0.0
2018-Apr-22 06:53N 35°03' E 136°53'0 0.0
2018-Apr-22 06:29N 35°03' E 136°53'0 0.0
2018-Apr-22 05:59N 35°03' E 136°53'1 1.3
2018-Apr-22 05:30N 35°03' E 136°52'816.4
2018-Apr-22 05:00N 34°56' E 136°47'1020.2
2018-Apr-22 04:30N 34°46' E 136°48'1020.0
2018-Apr-22 04:00N 34°38' E 136°54'815.2
2018-Apr-22 03:30N 34°33' E 137°02'917.8
2018-Apr-22 03:00N 34°33' E 137°12'1020.2
2018-Apr-22 02:30N 34°32' E 137°25'1120.3
2018-Apr-22 01:58N 34°32' E 137°38'920.3
2018-Apr-22 01:30N 34°31' E 137°49'1020.2
2018-Apr-22 01:00N 34°31' E 138°02'1120.7
2018-Apr-22 00:28N 34°31' E 138°15'1020.2
2018-Apr-21 23:59N 34°31' E 138°27'1120.0
2018-Apr-21 23:27N 34°32' E 138°40'920.0
2018-Apr-21 23:00N 34°32' E 138°51'1019.2
2018-Apr-21 22:30N 34°34' E 139°02'919.3
2018-Apr-21 22:01N 34°36' E 139°14'1019.5
2018-Apr-21 21:30N 34°38' E 139°25'1018.7
2018-Apr-21 21:00N 34°41' E 139°36'1019.9
2018-Apr-21 20:30N 34°45' E 139°47'1019.7
2018-Apr-21 19:59N 34°49' E 139°58'919.7
2018-Apr-21 19:30N 34°54' E 140°08'1019.3
2018-Apr-21 19:01N 34°59' E 140°18'1019.4
2018-Apr-21 18:30N 35°05' E 140°28'1118.8
2018-Apr-21 17:54N 35°14' E 140°37'718.8
2018-Apr-21 17:30N 35°20' E 140°42'1019.3
2018-Apr-21 16:58N 35°28' E 140°50'31315.4
2018-Apr-20 20:40N 40°40' E 141°32'319.4
2018-Apr-20 20:30N 40°43' E 141°33'1019.5
2018-Apr-20 20:00N 40°53' E 141°33'1019.1
2018-Apr-20 19:28N 41°03' E 141°35'918.5
2018-Apr-20 19:00N 41°12' E 141°36'1218.8
2018-Apr-20 18:23N 41°23' E 141°38'32 1.8
2018-Apr-20 00:38N 41°54' E 141°37'318.7
2018-Apr-20 00:29N 41°52' E 141°37'1019.2
2018-Apr-19 23:57N 41°41' E 141°37'817.8
2018-Apr-19 23:30N 41°33' E 141°37'917.8
2018-Apr-19 23:00N 41°25' E 141°37'917.4
2018-Apr-19 22:29N 41°16' E 141°40'917.9
2018-Apr-19 22:00N 41°07' E 141°42'918.1
2018-Apr-19 21:30N 40°58' E 141°44'1918.2
2018-Apr-19 20:26N 40°40' E 141°51'34514.8
2018-Apr-18 21:11N 35°02' E 140°23'620.1
2018-Apr-18 20:53N 34°58' E 140°18'820.2
2018-Apr-18 20:30N 34°54' E 140°10'1020.0
2018-Apr-18 19:59N 34°48' E 139°59'1020.0
2018-Apr-18 19:30N 34°45' E 139°48'1019.3
2018-Apr-18 18:59N 34°41' E 139°37'1019.4
2018-Apr-18 18:30N 34°37' E 139°26'1020.1
2018-Apr-18 18:00N 34°35' E 139°15'1120.9
2018-Apr-18 17:29N 34°32' E 139°02'1420.7
2018-Apr-18 16:49N 34°29' E 138°46'720.2
2018-Apr-18 16:30N 34°29' E 138°38'1320.3
2018-Apr-18 15:50N 34°29' E 138°21'719.7
2018-Apr-18 15:30N 34°29' E 138°13'1020.2
2018-Apr-18 15:00N 34°29' E 138°01'1520.9
2018-Apr-18 14:18N 34°30' E 137°44'1020.9
2018-Apr-18 13:50N 34°31' E 137°31'721.0
2018-Apr-18 13:30N 34°31' E 137°23'1419.7
2018-Apr-18 12:46N 34°32' E 137°06'514.7
2018-Apr-18 12:27N 34°33' E 137°00'816.8
2018-Apr-18 12:00N 34°38' E 136°53'1020.4
2018-Apr-18 11:30N 34°46' E 136°46'1020.2
2018-Apr-18 11:00N 34°56' E 136°46'816.0
2018-Apr-18 10:31N 35°03' E 136°52'1 1.6
2018-Apr-18 10:00N 35°03' E 136°53'0 0.0
2018-Apr-18 09:26N 35°03' E 136°53'0 0.0
2018-Apr-18 08:56N 35°03' E 136°53'0 0.0
2018-Apr-18 08:26N 35°03' E 136°53'0 0.0
2018-Apr-18 07:56N 35°03' E 136°53'0 0.0
2018-Apr-18 07:26N 35°03' E 136°53'0 0.0
2018-Apr-18 06:56N 35°03' E 136°53'0 0.0
2018-Apr-18 06:26N 35°03' E 136°53'0 0.0
2018-Apr-18 06:01N 35°03' E 136°53'3 6.4
2018-Apr-18 05:31N 35°01' E 136°50'611.9
2018-Apr-18 05:00N 34°55' E 136°47'815.6
2018-Apr-18 04:30N 34°48' E 136°46'917.9
2018-Apr-18 04:00N 34°40' E 136°53'816.0
2018-Apr-18 03:30N 34°35' E 136°59'915.3
2018-Apr-18 02:57N 34°32' E 137°09'1020.2
2018-Apr-18 02:27N 34°33' E 137°21'1620.2
2018-Apr-18 01:40N 34°33' E 137°41'320.2
2018-Apr-18 01:29N 34°32' E 137°45'1020.2
2018-Apr-18 01:00N 34°32' E 137°57'1020.2
2018-Apr-18 00:28N 34°31' E 138°10'1020.4
2018-Apr-17 23:59N 34°31' E 138°22'1120.2
2018-Apr-17 23:26N 34°31' E 138°36'920.9
2018-Apr-17 22:59N 34°31' E 138°47'1021.4
2018-Apr-17 22:31N 34°33' E 138°59'1120.9
2018-Apr-17 22:00N 34°35' E 139°12'1020.5
2018-Apr-17 21:30N 34°38' E 139°24'1020.9
2018-Apr-17 21:00N 34°41' E 139°35'1020.5
2018-Apr-17 20:30N 34°46' E 139°47'1119.9
2018-Apr-17 19:57N 34°50' E 139°59'920.2
2018-Apr-17 19:30N 34°55' E 140°09'1019.8
2018-Apr-17 18:59N 35°00' E 140°19'34615.4
2018-Apr-16 20:31N 40°41' E 141°32'118.6
2018-Apr-16 20:27N 40°43' E 141°32'818.8
2018-Apr-16 20:00N 40°51' E 141°32'918.8
2018-Apr-16 19:30N 41°00' E 141°34'53 2.8
2018-Apr-16 00:32N 41°53' E 141°36'318.5
2018-Apr-16 00:22N 41°50' E 141°37'1118.4
2018-Apr-15 23:48N 41°39' E 141°36'617.3
2018-Apr-15 23:26N 41°33' E 141°37'816.6
2018-Apr-15 22:58N 41°25' E 141°37'38614.9
2018-Apr-14 21:06N 35°03' E 140°25'322.5
2018-Apr-14 20:59N 35°02' E 140°22'1122.0
2018-Apr-14 20:30N 34°56' E 140°11'1122.4
2018-Apr-14 20:00N 34°50' E 139°60'1221.1
2018-Apr-14 19:27N 34°45' E 139°47'1020.8
2018-Apr-14 18:57N 34°41' E 139°35'920.6
2018-Apr-14 18:30N 34°38' E 139°25'1020.3
2018-Apr-14 18:00N 34°34' E 139°13'1120.9
2018-Apr-14 17:30N 34°30' E 139°02'1520.5
2018-Apr-14 16:48N 34°28' E 138°44'720.7
2018-Apr-14 16:26N 34°28' E 138°35'1120.4
2018-Apr-14 15:53N 34°29' E 138°22'920.3
2018-Apr-14 15:28N 34°29' E 138°11'920.5
2018-Apr-14 15:01N 34°29' E 137°60'2920.5
2018-Apr-14 13:36N 34°31' E 137°25'220.8
2018-Apr-14 13:29N 34°31' E 137°22'1619.5
2018-Apr-14 12:40N 34°32' E 137°03'513.9
2018-Apr-14 12:19N 34°35' E 136°58'618.9
2018-Apr-14 12:00N 34°39' E 136°52'1019.6
2018-Apr-14 11:31N 34°47' E 136°46'1019.5
2018-Apr-14 11:01N 34°56' E 136°46'815.9
2018-Apr-14 10:30N 35°03' E 136°52'0 0.9
2018-Apr-14 10:00N 35°03' E 136°53'0 0.0
2018-Apr-14 09:30N 35°03' E 136°53'0 0.0
2018-Apr-14 09:01N 35°03' E 136°53'0 0.0
2018-Apr-14 08:30N 35°03' E 136°53'0 0.0
2018-Apr-14 08:00N 35°03' E 136°53'0 0.0
2018-Apr-14 07:30N 35°03' E 136°53'0 0.0
2018-Apr-14 07:00N 35°03' E 136°53'0 0.0
2018-Apr-14 06:30N 35°03' E 136°53'0 0.0
2018-Apr-14 06:00N 35°03' E 136°53'0 0.2
2018-Apr-14 05:30N 35°03' E 136°53'510.3
2018-Apr-14 05:00N 34°59' E 136°49'714.7
2018-Apr-14 04:30N 34°52' E 136°46'815.1
2018-Apr-14 04:00N 34°44' E 136°48'917.2
2018-Apr-14 03:30N 34°38' E 136°55'914.1
2018-Apr-14 02:54N 34°32' E 137°03'717.4
2018-Apr-14 02:28N 34°32' E 137°12'2320.5
2018-Apr-14 01:21N 34°31' E 137°39'920.2
2018-Apr-14 00:55N 34°31' E 137°50'820.3
2018-Apr-14 00:30N 34°31' E 138°00'1120.3
2018-Apr-13 23:56N 34°30' E 138°14'920.7
2018-Apr-13 23:30N 34°31' E 138°26'1020.6
2018-Apr-13 23:00N 34°31' E 138°38'1020.0
2018-Apr-13 22:28N 34°32' E 138°51'919.6
2018-Apr-13 22:00N 34°33' E 139°02'1019.5
2018-Apr-13 21:30N 34°35' E 139°13'1019.8
2018-Apr-13 21:00N 34°37' E 139°25'1019.4
2018-Apr-13 20:30N 34°41' E 139°36'1120.1
2018-Apr-13 19:59N 34°46' E 139°47'1119.5
2018-Apr-13 19:25N 34°51' E 139°59'818.4
2018-Apr-13 19:00N 34°54' E 140°08'1018.9
2018-Apr-13 18:28N 34°59' E 140°19'  

Dump ship's entire track history